Terminal Aerodrome Forecast
Issued by NWS Blacksburg, VA

Home | Current Version | Previous Version | Text Only | Print | Product List | Glossary On
Versions: 1 2 3 4 5 6 7 8 9 10 11 12 13 14 15 16 17 18 19 20 21 22 23 24 25 26 27 28 29 30
000
FTUS41 KRNK 041818 AAA
TAFBLF
TAF AMD
KBLF 041818Z 0418/0518 27010G18KT P6SM VCTS BKN035CB
     FM041830 26012G25KT 4SM -TSRA OVC020CB
     FM041930 27010G18KT P6SM VCTS BKN035CB
     FM050200 27005KT P6SM SCT015 BKN250
      TEMPO 0509/0512 BKN015
     FM051400 29008G16KT P6SM SCT035=

USA.gov is the U.S. government's official web portal to all federal, state and local government web resources and services.